Impacts METAR Board
IDs:

KBOS - Boston/Logan Intl, MA, US

Updated at: 0300 UTC 17 Jul 2018
Potential Impact None Slight Moderate High
Time 16/15Z 16/16Z 16/17Z 16/18Z 16/19Z 16/20Z 16/21Z 16/22Z 16/23Z 17/00Z 17/01Z 17/02Z 17/03Z
Temp72 72 72 71 72 71 71 72 72 71 71 71 76
Dewpt67 67 67 67 67 67 67 67 67 67 67 67 70
Altim30.01 30.01 29.99 29.98 29.97 29.96 29.95 29.94 29.93 29.93 29.92 29.94 29.93
VIS1.5 1.5 3 3 0.5 6 6 7 8 9 10 10 9
CIG6 250 250 250 250 250 220 220 220 220 220 -- --
CoverBKNBKNBKNBKNBKNBKNBKNBKNBKNBKNBKNSCTSCT
FltCatIFRIFRMVFRMVFRLIFRVFRVFRVFRVFRVFRVFRVFRVFR
WXBRBRBRBRBCFGBCFGBCFGBCFG----------
WDir11090808080907070608080160200
WSpd7 8 10 10 8 8 8 8 6 5 4 3 9
WGst-- -- -- -- -- -- -- -- -- -- -- -- --
Raw hourly METARs
KBOS 161504Z 11007KT 1 1/2SM R04R/3000VP6000FT BR BKN006 BKN010 22/19 A3001 RMK AO2 SFC VIS 4 VIS NE-S 1 T02220194
KBOS 161554Z 09008KT 1 1/2SM BR FEW006 SCT075 BKN250 22/19 A3001 RMK AO2 SFC VIS 5 SLP160 VIS E-S 1 T02220194
KBOS 161654Z 08010KT 3SM BR SCT004 SCT055 BKN250 22/19 A2999 RMK AO2 SFC VIS 6 SLP155 VIS E-SE 1 T02220194
KBOS 161754Z 08010KT 3SM BR SCT002 SCT008 SCT050 BKN250 22/19 A2998 RMK AO2 SFC VIS 4 SLP151 VIS E-SE 1 T02170194 10228 20211 58010
KBOS 161854Z 08008KT 1/2SM R04R/P6000FT BCFG FEW002 SCT008 SCT050 BKN250 22/19 A2997 RMK AO2 SFC VIS 2 1/2 SLP148 VIS NE-S 1/2 T02220194
KBOS 161954Z 09008KT 6SM BCFG FEW004 SCT008 SCT050 BKN250 22/19 A2996 RMK AO2 LTG DSNT S SLP146 VIS NE-S 1 MDT CU SE T02170194
KBOS 162054Z 07008KT 6SM BCFG SCT003 SCT011 SCT070 BKN220 22/19 A2995 RMK AO2 SLP140 VIS NE-S 3/4 T02170194 58011
KBOS 162154Z 07008KT 7SM BCFG SCT002 SCT065 BKN220 22/19 A2994 RMK AO2 SLP137 VIS N-E 1 T02220194
KBOS 162254Z 06006KT 8SM FEW002 FEW065 BKN220 22/19 A2993 RMK AO2 SLP135 T02220194
KBOS 162354Z 08005KT 9SM FEW002 SCT065 BKN220 22/19 A2993 RMK AO2 LTG DSNT W SLP133 MDT CU W T02170194 10222 20211 56007
KBOS 170054Z 08004KT 10SM FEW055 SCT120 BKN220 22/19 A2992 RMK AO2 SLP132 T02170194
KBOS 170154Z 16003KT 10SM FEW050 SCT120 SCT250 22/19 A2994 RMK AO2 SLP137 T02170194
KBOS 170254Z 20009KT 9SM FEW050 SCT120 SCT250 24/21 A2993 RMK AO2 SLP134 T02440211 50001



Page loaded:  03:53 UTC  |   08:53 PM Pacific  |   09:53 PM Mountain  |   10:53 PM Central  |   11:53 PM Eastern

 

ADVISORIES

FORECASTS

FORECASTS

OBSERVATIONS

USER TOOLS

ABOUT US